sensor_id;sensor_type;location;lat;lon;timestamp;temperature;humidity
3564;DHT22;1796;52.388;13.096;2023-04-03T00:02:00;0.30;99.90
3564;DHT22;1796;52.388;13.096;2023-04-03T00:04:28;0.30;99.90
3564;DHT22;1796;52.388;13.096;2023-04-03T00:06:55;0.40;99.90
3564;DHT22;1796;52.388;13.096;2023-04-03T00:09:22;0.40;99.90
3564;DHT22;1796;52.388;13.096;2023-04-03T00:11:49;0.40;99.90
3564;DHT22;1796;52.388;13.096;2023-04-03T00:14:16;0.30;99.90
3564;DHT22;1796;52.388;13.096;2023-04-03T00:16:42;0.20;99.90
3564;DHT22;1796;52.388;13.096;2023-04-03T00:19:09;0.20;99.90
3564;DHT22;1796;52.388;13.096;2023-04-03T00:21:39;0.30;99.90
3564;DHT22;1796;52.388;13.096;2023-04-03T00:24:06;0.30;99.90
3564;DHT22;1796;52.388;13.096;2023-04-03T00:26:33;0.30;99.90
3564;DHT22;1796;52.388;13.096;2023-04-03T00:29:00;0.20;99.90
3564;DHT22;1796;52.388;13.096;2023-04-03T00:31:27;0.10;99.90
3564;DHT22;1796;52.388;13.096;2023-04-03T00:33:54;0.20;99.90
3564;DHT22;1796;52.388;13.096;2023-04-03T00:36:20;0.20;99.90
3564;DHT22;1796;52.388;13.096;2023-04-03T00:38:49;0.20;99.90
3564;DHT22;1796;52.388;13.096;2023-04-03T00:41:15;0.20;99.90
3564;DHT22;1796;52.388;13.096;2023-04-03T00:43:42;0.20;99.90
3564;DHT22;1796;52.388;13.096;2023-04-03T00:46:10;0.10;99.90
3564;DHT22;1796;52.388;13.096;2023-04-03T00:48:39;0.20;99.90
3564;DHT22;1796;52.388;13.096;2023-04-03T00:51:09;0.20;99.90
3564;DHT22;1796;52.388;13.096;2023-04-03T00:53:40;0.10;99.90
3564;DHT22;1796;52.388;13.096;2023-04-03T00:56:11;0.10;99.90
3564;DHT22;1796;52.388;13.096;2023-04-03T00:58:42;0.20;99.90
3564;DHT22;1796;52.388;13.096;2023-04-03T01:01:15;0.20;99.90
3564;DHT22;1796;52.388;13.096;2023-04-03T01:03:43;0.30;99.90
3564;DHT22;1796;52.388;13.096;2023-04-03T01:06:18;0.40;99.90
3564;DHT22;1796;52.388;13.096;2023-04-03T01:08:48;0.40;99.90
3564;DHT22;1796;52.388;13.096;2023-04-03T01:11:17;0.40;99.90
3564;DHT22;1796;52.388;13.096;2023-04-03T01:13:46;0.40;99.90
3564;DHT22;1796;52.388;13.096;2023-04-03T01:16:13;0.30;99.90
3564;DHT22;1796;52.388;13.096;2023-04-03T01:18:40;0.20;99.90
3564;DHT22;1796;52.388;13.096;2023-04-03T01:24:24;0.30;99.90
3564;DHT22;1796;52.388;13.096;2023-04-03T01:26:55;0.30;99.90
3564;DHT22;1796;52.388;13.096;2023-04-03T01:29:22;0.30;99.90
3564;DHT22;1796;52.388;13.096;2023-04-03T01:31:52;0.30;99.90
3564;DHT22;1796;52.388;13.096;2023-04-03T01:34:19;0.30;99.90
3564;DHT22;1796;52.388;13.096;2023-04-03T01:36:46;0.30;99.90
3564;DHT22;1796;52.388;13.096;2023-04-03T01:39:13;0.30;99.90
3564;DHT22;1796;52.388;13.096;2023-04-03T01:41:40;0.30;99.90
3564;DHT22;1796;52.388;13.096;2023-04-03T01:44:07;0.30;99.90
3564;DHT22;1796;52.388;13.096;2023-04-03T01:46:34;0.20;99.90
3564;DHT22;1796;52.388;13.096;2023-04-03T01:49:04;0.20;99.90
3564;DHT22;1796;52.388;13.096;2023-04-03T01:51:31;0.30;99.90
3564;DHT22;1796;52.388;13.096;2023-04-03T01:53:58;0.10;99.90
3564;DHT22;1796;52.388;13.096;2023-04-03T01:56:25;0.00;99.90
3564;DHT22;1796;52.388;13.096;2023-04-03T01:58:52;0.10;99.90
3564;DHT22;1796;52.388;13.096;2023-04-03T02:01:19;0.20;99.90
3564;DHT22;1796;52.388;13.096;2023-04-03T02:03:46;0.10;99.90
3564;DHT22;1796;52.388;13.096;2023-04-03T02:06:14;0.30;99.90
3564;DHT22;1796;52.388;13.096;2023-04-03T02:08:41;0.20;99.90
3564;DHT22;1796;52.388;13.096;2023-04-03T02:11:08;0.00;99.90
3564;DHT22;1796;52.388;13.096;2023-04-03T02:13:35;-0.10;99.90
3564;DHT22;1796;52.388;13.096;2023-04-03T02:16:06;-0.10;99.90
3564;DHT22;1796;52.388;13.096;2023-04-03T02:18:33;-0.10;99.90
3564;DHT22;1796;52.388;13.096;2023-04-03T02:21:00;-0.10;99.90
3564;DHT22;1796;52.388;13.096;2023-04-03T02:23:28;-0.10;99.90
3564;DHT22;1796;52.388;13.096;2023-04-03T02:26:03;0.00;99.90
3564;DHT22;1796;52.388;13.096;2023-04-03T02:28:30;0.00;99.90
3564;DHT22;1796;52.388;13.096;2023-04-03T02:30:57;-0.10;99.90
3564;DHT22;1796;52.388;13.096;2023-04-03T02:33:24;-0.10;99.90
3564;DHT22;1796;52.388;13.096;2023-04-03T02:35:53;-0.20;99.90
3564;DHT22;1796;52.388;13.096;2023-04-03T02:38:20;-0.30;99.90
3564;DHT22;1796;52.388;13.096;2023-04-03T02:40:48;-0.30;99.90
3564;DHT22;1796;52.388;13.096;2023-04-03T02:43:15;-0.30;99.90
3564;DHT22;1796;52.388;13.096;2023-04-03T02:45:42;-0.20;99.90
3564;DHT22;1796;52.388;13.096;2023-04-03T02:48:09;-0.20;99.90
3564;DHT22;1796;52.388;13.096;2023-04-03T02:50:36;-0.30;99.90
3564;DHT22;1796;52.388;13.096;2023-04-03T02:53:02;-0.40;99.90
3564;DHT22;1796;52.388;13.096;2023-04-03T02:55:30;-0.50;99.90
3564;DHT22;1796;52.388;13.096;2023-04-03T02:57:58;-0.50;99.90
3564;DHT22;1796;52.388;13.096;2023-04-03T03:00:25;-0.60;99.90
3564;DHT22;1796;52.388;13.096;2023-04-03T03:02:52;-0.60;99.90
3564;DHT22;1796;52.388;13.096;2023-04-03T03:05:19;-0.70;99.90
3564;DHT22;1796;52.388;13.096;2023-04-03T03:07:45;-0.70;99.90
3564;DHT22;1796;52.388;13.096;2023-04-03T03:10:12;-0.70;99.90
3564;DHT22;1796;52.388;13.096;2023-04-03T03:12:40;-0.80;99.90
3564;DHT22;1796;52.388;13.096;2023-04-03T03:15:09;-0.80;99.90
3564;DHT22;1796;52.388;13.096;2023-04-03T03:17:36;-0.80;99.90
3564;DHT22;1796;52.388;13.096;2023-04-03T03:20:03;-0.90;99.90
3564;DHT22;1796;52.388;13.096;2023-04-03T03:22:30;-0.90;99.90
3564;DHT22;1796;52.388;13.096;2023-04-03T03:24:57;-0.80;99.90
3564;DHT22;1796;52.388;13.096;2023-04-03T03:27:24;-0.80;99.90
3564;DHT22;1796;52.388;13.096;2023-04-03T03:29:51;-0.90;99.90
3564;DHT22;1796;52.388;13.096;2023-04-03T03:32:19;-0.80;99.90
3564;DHT22;1796;52.388;13.096;2023-04-03T03:34:46;-0.80;99.90
3564;DHT22;1796;52.388;13.096;2023-04-03T03:37:13;-0.90;99.90
3564;DHT22;1796;52.388;13.096;2023-04-03T03:39:40;-0.90;99.90
3564;DHT22;1796;52.388;13.096;2023-04-03T03:42:07;-0.90;99.90
3564;DHT22;1796;52.388;13.096;2023-04-03T03:44:34;-1.00;99.90
3564;DHT22;1796;52.388;13.096;2023-04-03T03:47:00;-0.90;99.90
3564;DHT22;1796;52.388;13.096;2023-04-03T03:49:29;-0.90;99.90
3564;DHT22;1796;52.388;13.096;2023-04-03T03:51:56;-1.00;99.90
3564;DHT22;1796;52.388;13.096;2023-04-03T03:54:23;-1.00;99.90
3564;DHT22;1796;52.388;13.096;2023-04-03T03:56:50;-1.00;99.90
3564;DHT22;1796;52.388;13.096;2023-04-03T03:59:17;-1.00;99.90
3564;DHT22;1796;52.388;13.096;2023-04-03T04:01:44;-0.90;99.90
3564;DHT22;1796;52.388;13.096;2023-04-03T04:04:11;-1.00;99.90
3564;DHT22;1796;52.388;13.096;2023-04-03T04:06:39;-1.00;99.90
3564;DHT22;1796;52.388;13.096;2023-04-03T04:09:06;-1.00;99.90
3564;DHT22;1796;52.388;13.096;2023-04-03T04:11:33;-1.00;99.90
3564;DHT22;1796;52.388;13.096;2023-04-03T04:14:00;-1.10;99.90
3564;DHT22;1796;52.388;13.096;2023-04-03T04:16:27;-1.10;99.90
3564;DHT22;1796;52.388;13.096;2023-04-03T04:18:54;-1.10;99.90
3564;DHT22;1796;52.388;13.096;2023-04-03T04:21:21;-1.20;99.90
3564;DHT22;1796;52.388;13.096;2023-04-03T04:23:49;-1.10;99.90
3564;DHT22;1796;52.388;13.096;2023-04-03T04:26:16;-1.10;99.90
3564;DHT22;1796;52.388;13.096;2023-04-03T04:28:42;-1.10;99.90
3564;DHT22;1796;52.388;13.096;2023-04-03T04:31:09;-1.10;99.90
3564;DHT22;1796;52.388;13.096;2023-04-03T04:33:36;-1.20;99.90
3564;DHT22;1796;52.388;13.096;2023-04-03T04:36:03;-1.10;99.90
3564;DHT22;1796;52.388;13.096;2023-04-03T04:38:30;-1.10;99.90
3564;DHT22;1796;52.388;13.096;2023-04-03T04:40:58;-1.10;99.90
3564;DHT22;1796;52.388;13.096;2023-04-03T04:43:25;-1.10;99.90
3564;DHT22;1796;52.388;13.096;2023-04-03T04:46:01;-1.20;99.90
3564;DHT22;1796;52.388;13.096;2023-04-03T04:48:28;-1.10;99.90
3564;DHT22;1796;52.388;13.096;2023-04-03T04:50:55;-1.20;99.90
3564;DHT22;1796;52.388;13.096;2023-04-03T04:53:21;-1.20;99.90
3564;DHT22;1796;52.388;13.096;2023-04-03T04:55:48;-1.10;99.90
3564;DHT22;1796;52.388;13.096;2023-04-03T04:58:16;-1.00;99.90
3564;DHT22;1796;52.388;13.096;2023-04-03T05:00:44;-0.80;99.90
3564;DHT22;1796;52.388;13.096;2023-04-03T05:03:11;-0.50;99.90
3564;DHT22;1796;52.388;13.096;2023-04-03T05:05:38;-0.30;99.90
3564;DHT22;1796;52.388;13.096;2023-04-03T05:08:06;-0.20;99.90
3564;DHT22;1796;52.388;13.096;2023-04-03T05:10:34;0.00;99.90
3564;DHT22;1796;52.388;13.096;2023-04-03T05:13:00;0.10;99.90
3564;DHT22;1796;52.388;13.096;2023-04-03T05:15:29;0.30;99.90
3564;DHT22;1796;52.388;13.096;2023-04-03T05:17:55;0.40;99.90
3564;DHT22;1796;52.388;13.096;2023-04-03T05:20:22;0.50;99.90
3564;DHT22;1796;52.388;13.096;2023-04-03T05:22:49;0.70;99.90
3564;DHT22;1796;52.388;13.096;2023-04-03T05:25:16;0.80;99.90
3564;DHT22;1796;52.388;13.096;2023-04-03T05:27:43;0.90;99.90
3564;DHT22;1796;52.388;13.096;2023-04-03T05:30:11;1.10;99.90
3564;DHT22;1796;52.388;13.096;2023-04-03T05:32:39;1.20;99.90
3564;DHT22;1796;52.388;13.096;2023-04-03T05:35:07;1.30;99.90
3564;DHT22;1796;52.388;13.096;2023-04-03T05:37:34;1.40;99.90
3564;DHT22;1796;52.388;13.096;2023-04-03T05:40:02;1.50;99.90
3564;DHT22;1796;52.388;13.096;2023-04-03T05:42:29;1.60;99.90
3564;DHT22;1796;52.388;13.096;2023-04-03T05:44:56;1.70;99.90
3564;DHT22;1796;52.388;13.096;2023-04-03T05:47:23;1.90;99.90
3564;DHT22;1796;52.388;13.096;2023-04-03T05:49:51;1.60;99.90
3564;DHT22;1796;52.388;13.096;2023-04-03T05:52:21;1.70;99.90
3564;DHT22;1796;52.388;13.096;2023-04-03T05:54:48;1.80;99.90
3564;DHT22;1796;52.388;13.096;2023-04-03T05:57:15;1.90;99.90
3564;DHT22;1796;52.388;13.096;2023-04-03T05:59:43;1.90;99.90
3564;DHT22;1796;52.388;13.096;2023-04-03T06:02:12;2.20;99.90
3564;DHT22;1796;52.388;13.096;2023-04-03T06:04:39;2.00;99.90
3564;DHT22;1796;52.388;13.096;2023-04-03T06:07:10;2.00;99.90
3564;DHT22;1796;52.388;13.096;2023-04-03T06:09:38;2.00;99.90
3564;DHT22;1796;52.388;13.096;2023-04-03T06:12:05;2.00;99.90
3564;DHT22;1796;52.388;13.096;2023-04-03T06:14:32;2.30;99.90
3564;DHT22;1796;52.388;13.096;2023-04-03T06:16:59;2.10;99.90
3564;DHT22;1796;52.388;13.096;2023-04-03T06:19:27;2.10;99.90
3564;DHT22;1796;52.388;13.096;2023-04-03T06:21:54;2.10;99.90
3564;DHT22;1796;52.388;13.096;2023-04-03T06:24:23;1.80;99.90
3564;DHT22;1796;52.388;13.096;2023-04-03T06:26:51;1.80;99.90
3564;DHT22;1796;52.388;13.096;2023-04-03T06:29:18;2.30;99.90
3564;DHT22;1796;52.388;13.096;2023-04-03T06:31:45;2.20;99.90
3564;DHT22;1796;52.388;13.096;2023-04-03T06:34:12;2.70;99.90
3564;DHT22;1796;52.388;13.096;2023-04-03T06:36:40;2.50;99.90
3564;DHT22;1796;52.388;13.096;2023-04-03T06:39:09;2.70;99.90
3564;DHT22;1796;52.388;13.096;2023-04-03T06:41:39;2.60;99.90
3564;DHT22;1796;52.388;13.096;2023-04-03T06:44:06;3.40;99.90
3564;DHT22;1796;52.388;13.096;2023-04-03T06:46:37;3.40;99.90
3564;DHT22;1796;52.388;13.096;2023-04-03T06:49:04;3.70;99.90
3564;DHT22;1796;52.388;13.096;2023-04-03T06:51:33;3.60;99.90
3564;DHT22;1796;52.388;13.096;2023-04-03T06:54:01;3.70;99.90
3564;DHT22;1796;52.388;13.096;2023-04-03T06:56:28;3.90;99.90
3564;DHT22;1796;52.388;13.096;2023-04-03T06:58:57;3.80;99.90
3564;DHT22;1796;52.388;13.096;2023-04-03T07:01:25;3.80;99.90
3564;DHT22;1796;52.388;13.096;2023-04-03T07:03:53;4.20;99.90
3564;DHT22;1796;52.388;13.096;2023-04-03T07:06:20;4.10;99.90
3564;DHT22;1796;52.388;13.096;2023-04-03T07:08:47;4.30;99.90
3564;DHT22;1796;52.388;13.096;2023-04-03T07:11:14;4.10;99.90
3564;DHT22;1796;52.388;13.096;2023-04-03T07:13:41;4.10;99.90
3564;DHT22;1796;52.388;13.096;2023-04-03T07:16:10;4.10;99.90
3564;DHT22;1796;52.388;13.096;2023-04-03T07:18:37;4.20;99.90
3564;DHT22;1796;52.388;13.096;2023-04-03T07:21:04;4.40;99.90
3564;DHT22;1796;52.388;13.096;2023-04-03T07:23:31;4.10;99.90
3564;DHT22;1796;52.388;13.096;2023-04-03T07:25:58;3.90;99.90
3564;DHT22;1796;52.388;13.096;2023-04-03T07:28:25;3.60;99.90
3564;DHT22;1796;52.388;13.096;2023-04-03T07:30:54;4.10;99.90
3564;DHT22;1796;52.388;13.096;2023-04-03T07:33:22;3.70;99.90
3564;DHT22;1796;52.388;13.096;2023-04-03T07:35:50;3.40;99.90
3564;DHT22;1796;52.388;13.096;2023-04-03T07:38:17;3.10;99.90
3564;DHT22;1796;52.388;13.096;2023-04-03T07:40:46;3.00;99.90
3564;DHT22;1796;52.388;13.096;2023-04-03T07:43:14;3.00;99.90
3564;DHT22;1796;52.388;13.096;2023-04-03T07:45:41;3.10;99.90
3564;DHT22;1796;52.388;13.096;2023-04-03T07:48:09;3.00;99.90
3564;DHT22;1796;52.388;13.096;2023-04-03T07:50:39;3.00;99.90
3564;DHT22;1796;52.388;13.096;2023-04-03T07:53:06;3.00;99.90
3564;DHT22;1796;52.388;13.096;2023-04-03T07:55:33;2.90;99.90
3564;DHT22;1796;52.388;13.096;2023-04-03T07:58:02;3.10;99.90
3564;DHT22;1796;52.388;13.096;2023-04-03T08:00:30;3.40;99.90
3564;DHT22;1796;52.388;13.096;2023-04-03T08:02:57;3.50;99.90
3564;DHT22;1796;52.388;13.096;2023-04-03T08:05:23;3.50;99.90
3564;DHT22;1796;52.388;13.096;2023-04-03T08:07:52;3.20;99.90
3564;DHT22;1796;52.388;13.096;2023-04-03T08:10:19;3.30;99.90
3564;DHT22;1796;52.388;13.096;2023-04-03T08:12:46;3.30;99.90
3564;DHT22;1796;52.388;13.096;2023-04-03T08:15:13;3.30;99.90
3564;DHT22;1796;52.388;13.096;2023-04-03T08:17:40;3.50;99.90
3564;DHT22;1796;52.388;13.096;2023-04-03T08:20:07;3.30;99.90
3564;DHT22;1796;52.388;13.096;2023-04-03T08:22:35;3.20;99.90
3564;DHT22;1796;52.388;13.096;2023-04-03T08:25:03;3.30;99.90
3564;DHT22;1796;52.388;13.096;2023-04-03T08:27:30;3.30;99.90
3564;DHT22;1796;52.388;13.096;2023-04-03T08:29:57;3.80;99.90
3564;DHT22;1796;52.388;13.096;2023-04-03T08:32:24;3.90;99.90
3564;DHT22;1796;52.388;13.096;2023-04-03T08:34:51;4.20;99.90
3564;DHT22;1796;52.388;13.096;2023-04-03T08:37:18;3.80;99.90
3564;DHT22;1796;52.388;13.096;2023-04-03T08:39:45;3.70;99.90
3564;DHT22;1796;52.388;13.096;2023-04-03T08:42:22;3.50;99.90
3564;DHT22;1796;52.388;13.096;2023-04-03T08:44:58;3.60;99.90
3564;DHT22;1796;52.388;13.096;2023-04-03T08:47:30;3.80;99.90
3564;DHT22;1796;52.388;13.096;2023-04-03T08:50:05;4.00;99.90
3564;DHT22;1796;52.388;13.096;2023-04-03T08:52:38;3.90;99.90
3564;DHT22;1796;52.388;13.096;2023-04-03T08:55:15;4.20;99.90
3564;DHT22;1796;52.388;13.096;2023-04-03T08:57:45;4.30;99.90
3564;DHT22;1796;52.388;13.096;2023-04-03T09:00:18;4.50;99.90
3564;DHT22;1796;52.388;13.096;2023-04-03T09:02:46;4.30;99.90
3564;DHT22;1796;52.388;13.096;2023-04-03T09:05:16;4.50;99.90
3564;DHT22;1796;52.388;13.096;2023-04-03T09:07:45;4.40;99.90
3564;DHT22;1796;52.388;13.096;2023-04-03T09:10:15;4.20;99.90
3564;DHT22;1796;52.388;13.096;2023-04-03T09:12:57;4.10;99.90
3564;DHT22;1796;52.388;13.096;2023-04-03T09:15:26;4.00;99.90
3564;DHT22;1796;52.388;13.096;2023-04-03T09:17:59;4.00;99.90
3564;DHT22;1796;52.388;13.096;2023-04-03T09:20:39;3.80;99.90
3564;DHT22;1796;52.388;13.096;2023-04-03T09:23:14;4.00;99.90
3564;DHT22;1796;52.388;13.096;2023-04-03T09:25:43;4.10;99.90
3564;DHT22;1796;52.388;13.096;2023-04-03T09:28:12;4.40;99.90
3564;DHT22;1796;52.388;13.096;2023-04-03T09:30:40;4.00;99.90
3564;DHT22;1796;52.388;13.096;2023-04-03T09:33:07;4.20;99.90
3564;DHT22;1796;52.388;13.096;2023-04-03T09:35:35;4.40;99.90
3564;DHT22;1796;52.388;13.096;2023-04-03T09:38:15;4.60;99.90
3564;DHT22;1796;52.388;13.096;2023-04-03T09:40:43;4.90;99.90
3564;DHT22;1796;52.388;13.096;2023-04-03T09:43:25;5.10;99.90
3564;DHT22;1796;52.388;13.096;2023-04-03T09:45:53;4.70;99.90
3564;DHT22;1796;52.388;13.096;2023-04-03T09:48:21;4.70;99.90
3564;DHT22;1796;52.388;13.096;2023-04-03T09:50:57;4.60;99.90
3564;DHT22;1796;52.388;13.096;2023-04-03T09:53:34;4.70;99.90
3564;DHT22;1796;52.388;13.096;2023-04-03T09:56:04;5.30;99.90
3564;DHT22;1796;52.388;13.096;2023-04-03T09:58:35;5.20;99.90
3564;DHT22;1796;52.388;13.096;2023-04-03T10:01:04;5.50;99.90
3564;DHT22;1796;52.388;13.096;2023-04-03T10:03:33;5.40;99.90
3564;DHT22;1796;52.388;13.096;2023-04-03T10:06:02;5.10;99.90
3564;DHT22;1796;52.388;13.096;2023-04-03T10:08:31;5.20;99.90
3564;DHT22;1796;52.388;13.096;2023-04-03T10:11:14;5.00;99.90
3564;DHT22;1796;52.388;13.096;2023-04-03T10:13:53;4.70;99.90
3564;DHT22;1796;52.388;13.096;2023-04-03T10:16:25;4.80;99.90
3564;DHT22;1796;52.388;13.096;2023-04-03T10:19:05;4.50;99.90
3564;DHT22;1796;52.388;13.096;2023-04-03T10:21:40;4.60;99.90
3564;DHT22;1796;52.388;13.096;2023-04-03T10:24:13;4.70;99.90
3564;DHT22;1796;52.388;13.096;2023-04-03T10:26:51;5.10;99.90
3564;DHT22;1796;52.388;13.096;2023-04-03T10:29:38;5.10;99.90
3564;DHT22;1796;52.388;13.096;2023-04-03T10:35:02;5.10;99.90
3564;DHT22;1796;52.388;13.096;2023-04-03T10:37:45;4.60;99.90
3564;DHT22;1796;52.388;13.096;2023-04-03T10:40:24;4.60;99.90
3564;DHT22;1796;52.388;13.096;2023-04-03T10:43:04;4.70;99.90
3564;DHT22;1796;52.388;13.096;2023-04-03T10:45:48;5.20;99.90
3564;DHT22;1796;52.388;13.096;2023-04-03T10:48:26;5.40;99.90
3564;DHT22;1796;52.388;13.096;2023-04-03T10:51:01;5.40;99.90
3564;DHT22;1796;52.388;13.096;2023-04-03T10:53:39;5.20;99.90
3564;DHT22;1796;52.388;13.096;2023-04-03T10:56:11;5.10;99.90
3564;DHT22;1796;52.388;13.096;2023-04-03T10:58:44;5.10;99.90
3564;DHT22;1796;52.388;13.096;2023-04-03T11:01:16;4.80;99.90
3564;DHT22;1796;52.388;13.096;2023-04-03T11:03:46;4.90;99.90
3564;DHT22;1796;52.388;13.096;2023-04-03T11:06:15;4.80;99.90
3564;DHT22;1796;52.388;13.096;2023-04-03T11:08:46;4.70;99.90
3564;DHT22;1796;52.388;13.096;2023-04-03T11:11:17;5.20;99.90
3564;DHT22;1796;52.388;13.096;2023-04-03T11:13:50;5.10;99.90
3564;DHT22;1796;52.388;13.096;2023-04-03T11:16:24;5.60;99.90
3564;DHT22;1796;52.388;13.096;2023-04-03T11:18:56;5.70;99.90
3564;DHT22;1796;52.388;13.096;2023-04-03T11:21:28;5.60;99.90
3564;DHT22;1796;52.388;13.096;2023-04-03T11:23:57;5.40;99.90
3564;DHT22;1796;52.388;13.096;2023-04-03T11:26:27;5.30;99.90
3564;DHT22;1796;52.388;13.096;2023-04-03T11:28:59;5.40;99.90
3564;DHT22;1796;52.388;13.096;2023-04-03T11:31:42;5.60;99.90
3564;DHT22;1796;52.388;13.096;2023-04-03T11:34:22;6.20;99.90
3564;DHT22;1796;52.388;13.096;2023-04-03T11:36:53;6.40;99.90
3564;DHT22;1796;52.388;13.096;2023-04-03T11:39:25;6.30;99.90
3564;DHT22;1796;52.388;13.096;2023-04-03T11:41:53;6.10;99.90
3564;DHT22;1796;52.388;13.096;2023-04-03T11:44:32;5.90;99.90
3564;DHT22;1796;52.388;13.096;2023-04-03T11:47:02;6.00;99.90
3564;DHT22;1796;52.388;13.096;2023-04-03T11:49:55;6.40;99.90
3564;DHT22;1796;52.388;13.096;2023-04-03T11:52:58;6.80;99.90
3564;DHT22;1796;52.388;13.096;2023-04-03T11:55:59;6.90;99.90
3564;DHT22;1796;52.388;13.096;2023-04-03T11:58:28;6.10;99.90
3564;DHT22;1796;52.388;13.096;2023-04-03T12:00:59;6.10;99.90
3564;DHT22;1796;52.388;13.096;2023-04-03T12:06:58;6.20;99.90
3564;DHT22;1796;52.388;13.096;2023-04-03T12:09:28;5.90;99.90
3564;DHT22;1796;52.388;13.096;2023-04-03T12:11:57;5.70;99.90
3564;DHT22;1796;52.388;13.096;2023-04-03T12:14:26;5.70;99.90
3564;DHT22;1796;52.388;13.096;2023-04-03T12:16:55;5.90;99.90
3564;DHT22;1796;52.388;13.096;2023-04-03T12:19:38;5.80;99.90
3564;DHT22;1796;52.388;13.096;2023-04-03T12:22:14;6.10;99.90
3564;DHT22;1796;52.388;13.096;2023-04-03T12:24:42;6.30;99.90
3564;DHT22;1796;52.388;13.096;2023-04-03T12:27:20;5.80;99.90
3564;DHT22;1796;52.388;13.096;2023-04-03T12:29:53;5.90;99.90
3564;DHT22;1796;52.388;13.096;2023-04-03T12:32:32;6.00;99.90
3564;DHT22;1796;52.388;13.096;2023-04-03T12:35:17;5.90;99.90
3564;DHT22;1796;52.388;13.096;2023-04-03T12:38:14;6.00;99.90
3564;DHT22;1796;52.388;13.096;2023-04-03T12:40:48;6.30;99.90
3564;DHT22;1796;52.388;13.096;2023-04-03T12:43:31;5.90;99.90
3564;DHT22;1796;52.388;13.096;2023-04-03T12:46:04;6.10;99.90
3564;DHT22;1796;52.388;13.096;2023-04-03T12:48:33;6.00;99.90
3564;DHT22;1796;52.388;13.096;2023-04-03T12:51:05;6.30;99.90
3564;DHT22;1796;52.388;13.096;2023-04-03T12:53:34;6.10;99.90
3564;DHT22;1796;52.388;13.096;2023-04-03T12:56:20;6.00;99.90
3564;DHT22;1796;52.388;13.096;2023-04-03T12:58:47;6.50;99.90
3564;DHT22;1796;52.388;13.096;2023-04-03T13:01:16;6.70;99.90
3564;DHT22;1796;52.388;13.096;2023-04-03T13:03:47;6.60;99.90
3564;DHT22;1796;52.388;13.096;2023-04-03T13:06:18;6.50;99.90
3564;DHT22;1796;52.388;13.096;2023-04-03T13:08:49;6.40;99.90
3564;DHT22;1796;52.388;13.096;2023-04-03T13:11:17;6.10;99.90
3564;DHT22;1796;52.388;13.096;2023-04-03T13:13:57;6.20;99.90
3564;DHT22;1796;52.388;13.096;2023-04-03T13:16:24;5.90;99.90
3564;DHT22;1796;52.388;13.096;2023-04-03T13:18:52;5.70;99.90
3564;DHT22;1796;52.388;13.096;2023-04-03T13:21:22;5.90;99.90
3564;DHT22;1796;52.388;13.096;2023-04-03T13:23:52;6.00;99.90
3564;DHT22;1796;52.388;13.096;2023-04-03T13:26:22;5.60;99.90
3564;DHT22;1796;52.388;13.096;2023-04-03T13:28:52;5.60;99.90
3564;DHT22;1796;52.388;13.096;2023-04-03T13:31:22;5.50;99.90
3564;DHT22;1796;52.388;13.096;2023-04-03T13:33:56;5.50;99.90
3564;DHT22;1796;52.388;13.096;2023-04-03T13:36:29;5.70;99.90
3564;DHT22;1796;52.388;13.096;2023-04-03T13:39:02;5.80;99.90
3564;DHT22;1796;52.388;13.096;2023-04-03T13:41:32;5.70;99.90
3564;DHT22;1796;52.388;13.096;2023-04-03T13:44:16;5.90;99.90
3564;DHT22;1796;52.388;13.096;2023-04-03T13:46:43;6.00;99.90
3564;DHT22;1796;52.388;13.096;2023-04-03T13:49:21;5.60;99.90
3564;DHT22;1796;52.388;13.096;2023-04-03T13:51:50;5.60;99.90
3564;DHT22;1796;52.388;13.096;2023-04-03T13:54:22;5.60;99.90
3564;DHT22;1796;52.388;13.096;2023-04-03T13:56:53;5.50;99.90
3564;DHT22;1796;52.388;13.096;2023-04-03T13:59:24;5.60;99.90
3564;DHT22;1796;52.388;13.096;2023-04-03T14:01:55;5.60;99.90
3564;DHT22;1796;52.388;13.096;2023-04-03T14:04:24;5.50;99.90
3564;DHT22;1796;52.388;13.096;2023-04-03T14:06:53;5.60;99.90
3564;DHT22;1796;52.388;13.096;2023-04-03T14:09:22;5.60;99.90
3564;DHT22;1796;52.388;13.096;2023-04-03T14:11:51;5.70;99.90
3564;DHT22;1796;52.388;13.096;2023-04-03T14:14:20;5.60;99.90
3564;DHT22;1796;52.388;13.096;2023-04-03T14:16:55;5.60;99.90
3564;DHT22;1796;52.388;13.096;2023-04-03T14:19:25;5.60;99.90
3564;DHT22;1796;52.388;13.096;2023-04-03T14:21:55;5.80;99.90
3564;DHT22;1796;52.388;13.096;2023-04-03T14:24:23;5.90;99.90
3564;DHT22;1796;52.388;13.096;2023-04-03T14:26:50;5.90;99.90
3564;DHT22;1796;52.388;13.096;2023-04-03T14:29:18;5.60;99.90
3564;DHT22;1796;52.388;13.096;2023-04-03T14:31:47;5.50;99.90
3564;DHT22;1796;52.388;13.096;2023-04-03T14:34:15;5.80;99.90
3564;DHT22;1796;52.388;13.096;2023-04-03T14:36:44;5.40;99.90
3564;DHT22;1796;52.388;13.096;2023-04-03T14:39:17;5.30;99.90
3564;DHT22;1796;52.388;13.096;2023-04-03T14:41:45;5.20;99.90
3564;DHT22;1796;52.388;13.096;2023-04-03T14:44:12;5.20;99.90
3564;DHT22;1796;52.388;13.096;2023-04-03T14:46:42;5.20;99.90
3564;DHT22;1796;52.388;13.096;2023-04-03T14:49:12;5.00;99.90
3564;DHT22;1796;52.388;13.096;2023-04-03T14:51:41;4.90;99.90
3564;DHT22;1796;52.388;13.096;2023-04-03T14:54:14;4.90;99.90
3564;DHT22;1796;52.388;13.096;2023-04-03T14:56:42;4.90;99.90
3564;DHT22;1796;52.388;13.096;2023-04-03T14:59:11;4.90;99.90
3564;DHT22;1796;52.388;13.096;2023-04-03T15:01:39;5.00;99.90
3564;DHT22;1796;52.388;13.096;2023-04-03T15:04:10;5.00;99.90
3564;DHT22;1796;52.388;13.096;2023-04-03T15:06:38;5.00;99.90
3564;DHT22;1796;52.388;13.096;2023-04-03T15:09:05;4.90;99.90
3564;DHT22;1796;52.388;13.096;2023-04-03T15:11:36;5.10;99.90
3564;DHT22;1796;52.388;13.096;2023-04-03T15:14:02;4.90;99.90
3564;DHT22;1796;52.388;13.096;2023-04-03T15:16:29;5.00;99.90
3564;DHT22;1796;52.388;13.096;2023-04-03T15:18:56;5.00;99.90
3564;DHT22;1796;52.388;13.096;2023-04-03T15:21:23;5.00;99.90
3564;DHT22;1796;52.388;13.096;2023-04-03T15:23:50;4.90;99.90
3564;DHT22;1796;52.388;13.096;2023-04-03T15:26:17;5.10;99.90
3564;DHT22;1796;52.388;13.096;2023-04-03T15:28:45;5.30;99.90
3564;DHT22;1796;52.388;13.096;2023-04-03T15:31:12;5.30;99.90
3564;DHT22;1796;52.388;13.096;2023-04-03T15:33:39;5.40;99.90
3564;DHT22;1796;52.388;13.096;2023-04-03T15:36:06;5.30;99.90
3564;DHT22;1796;52.388;13.096;2023-04-03T15:38:33;5.20;99.90
3564;DHT22;1796;52.388;13.096;2023-04-03T15:41:00;5.20;99.90
3564;DHT22;1796;52.388;13.096;2023-04-03T15:43:27;5.00;99.90
3564;DHT22;1796;52.388;13.096;2023-04-03T15:45:58;4.90;99.90
3564;DHT22;1796;52.388;13.096;2023-04-03T15:48:25;4.90;99.90
3564;DHT22;1796;52.388;13.096;2023-04-03T15:50:52;4.90;99.90
3564;DHT22;1796;52.388;13.096;2023-04-03T15:53:19;4.80;99.90
3564;DHT22;1796;52.388;13.096;2023-04-03T15:55:46;4.70;99.90
3564;DHT22;1796;52.388;13.096;2023-04-03T15:58:13;4.60;99.90
3564;DHT22;1796;52.388;13.096;2023-04-03T16:00:40;4.50;99.90
3564;DHT22;1796;52.388;13.096;2023-04-03T16:03:11;4.60;99.90
3564;DHT22;1796;52.388;13.096;2023-04-03T16:05:39;4.50;99.90
3564;DHT22;1796;52.388;13.096;2023-04-03T16:08:06;4.50;99.90
3564;DHT22;1796;52.388;13.096;2023-04-03T16:10:34;4.50;99.90
3564;DHT22;1796;52.388;13.096;2023-04-03T16:13:01;4.40;99.90
3564;DHT22;1796;52.388;13.096;2023-04-03T16:15:29;4.40;99.90
3564;DHT22;1796;52.388;13.096;2023-04-03T16:17:57;4.30;99.90
3564;DHT22;1796;52.388;13.096;2023-04-03T16:20:27;4.30;99.90
3564;DHT22;1796;52.388;13.096;2023-04-03T16:22:55;4.40;99.90
3564;DHT22;1796;52.388;13.096;2023-04-03T16:25:22;4.40;99.90